Burns Harbor, Indiana
Current Conditions -  °F | °C
As of 7:56 PM on Saturday 22 Nov 2014 (Local Time) from KVPZ Reporting Station
Overcast Overcast  
Wind Chill: 50°   Ceiling: 2200
Heat Index: 50°   Visibility: 10mi
Dew Point: 44°   Wind: 12mph
Humidity: 80%   Direction: 200°SSW
Pressure: 29.93"   Gusts: NA
Location:  41.6139°N, 87.0454°W
Report Text: KVPZ 230156Z AUTO 20010KT 10SM OVC022 10/07 A2993 RMK AO2 SLP138 T01000067 TSNO
Loading
Personal Weather Stations






























Interactive Weather Map New forecast layout! Learn more

10-Day Weather Forecast

Advertisements
Track Severe Weather on mobile